North Chichester, New Hampshire
Current Conditions -  °F | °C
As of 10:51 PM on Saturday 25 Oct 2014 (Local Time) from KCON Reporting Station
Broken Clouds Broken Clouds  
Wind Chill: 50°   Ceiling: 7000
Heat Index: 50°   Visibility: 10mi
Dew Point: 44°   Wind: 5mph
Humidity: 80%   Direction: 160°SSE
Pressure: 29.49"   Gusts: NA
Location:  43.2528°N, 71.4017°W
Report Text: KCON 260251Z AUTO 16004KT 10SM FEW055 BKN070 BKN110 10/07 A2949 RMK AO2 SLP989 T01000067 57020
Loading
Personal Weather Stations






























Interactive Weather Map
Tropical Storm Tracking
New forecast layout! Learn more

10-Day Weather Forecast

Advertisements
Track Severe Weather on mobile